Time;durP1;ratioP1;P1;durP2;ratioP2;P2;SDS_P1;SDS_P2;PMS_P1;PMS_P2;Temp;Humidity;BMP_temperature;BMP_pressure;BME280_temperature;BME280_humidity;BME280_pressure;Samples;Min_cycle;Max_cycle;Signal;HPM_P1;HPM_P2
2022/10/21 00:00:51;;;;;;;43.73;29.63;;;13.60;1.00;;;;;;5028332;28;20175;-65
2022/10/21 00:03:18;;;;;;;52.37;28.47;;;13.70;1.00;;;;;;5030155;28;20513;-65
2022/10/21 00:05:44;;;;;;;44.70;29.30;;;13.70;1.00;;;;;;5029848;28;21098;-65
2022/10/21 00:08:10;;;;;;;59.70;34.83;;;13.70;1.00;;;;;;5030525;28;20414;-69
2022/10/21 00:10:36;;;;;;;64.03;32.80;;;13.70;1.00;;;;;;5027565;28;20175;-68
2022/10/21 00:13:01;;;;;;;51.07;31.77;;;13.70;1.00;;;;;;5029456;28;20241;-68
2022/10/21 00:15:27;;;;;;;40.03;29.13;;;13.70;1.00;;;;;;5029124;28;20176;-67
2022/10/21 00:17:53;;;;;;;39.00;25.77;;;13.60;1.00;;;;;;5033911;28;20179;-67
2022/10/21 00:20:19;;;;;;;34.10;26.00;;;13.70;1.00;;;;;;5032675;28;20660;-67
2022/10/21 00:22:44;;;;;;;36.83;24.60;;;13.70;1.00;;;;;;5032854;28;20242;-69
2022/10/21 00:25:10;;;;;;;35.03;24.50;;;13.70;1.00;;;;;;5033030;28;20213;-70
2022/10/21 00:27:36;;;;;;;35.50;23.17;;;13.70;1.00;;;;;;5033254;28;20180;-69
2022/10/21 00:30:04;;;;;;;36.30;26.57;;;13.60;1.00;;;;;;5032541;28;20184;-68
2022/10/21 00:32:29;;;;;;;44.17;26.40;;;13.60;1.00;;;;;;5032399;28;20240;-68
2022/10/21 00:34:55;;;;;;;39.73;26.33;;;13.70;1.00;;;;;;5032948;28;20434;-67
2022/10/21 00:37:21;;;;;;;38.50;24.00;;;13.70;1.00;;;;;;5033096;28;20179;-67
2022/10/21 00:39:46;;;;;;;42.80;25.17;;;13.70;1.00;;;;;;5032927;28;20206;-67
2022/10/21 00:42:19;;;;;;;40.47;24.33;;;13.60;1.00;;;;;;5032223;28;20624;-69
2022/10/21 00:45:10;;;;;;;34.23;24.50;;;13.60;1.00;;;;;;5032745;28;20187;-69
2022/10/21 00:47:43;;;;;;;37.10;24.00;;;13.60;1.00;;;;;;5033267;28;20453;-68
2022/10/21 00:50:23;;;;;;;41.90;27.30;;;13.40;1.00;;;;;;5035704;28;20414;-67
2022/10/21 00:52:50;;;;;;;32.60;24.50;;;13.30;1.00;;;;;;5036016;28;20418;-68
2022/10/21 00:55:16;;;;;;;47.30;28.80;;;13.40;1.00;;;;;;5036997;28;20414;-68
2022/10/21 00:57:41;;;;;;;45.30;31.73;;;13.40;1.00;;;;;;5037316;28;20424;-68
2022/10/21 01:00:07;;;;;;;58.90;30.57;;;13.40;1.00;;;;;;5036489;28;20460;-68
2022/10/21 01:02:33;;;;;;;53.60;29.60;;;13.50;1.00;;;;;;5035608;28;20264;-68
2022/10/21 01:05:00;;;;;;;51.67;29.53;;;13.60;1.00;;;;;;5038144;28;20406;-68
2022/10/21 01:07:26;;;;;;;46.27;31.23;;;13.50;1.00;;;;;;5037803;28;20179;-67
2022/10/21 01:09:52;;;;;;;48.30;28.30;;;13.50;1.00;;;;;;5035504;28;20422;-66
2022/10/21 01:12:40;;;;;;;45.63;29.47;;;13.60;1.00;;;;;;5033892;28;20414;-68
2022/10/21 01:15:17;;;;;;;48.37;28.73;;;13.70;1.00;;;;;;5035454;28;20178;-68
2022/10/21 01:18:03;;;;;;;48.23;28.03;;;13.70;1.00;;;;;;5035773;28;21001;-67
2022/10/21 01:20:52;;;;;;;49.63;28.73;;;13.70;1.00;;;;;;5034374;28;20502;-68
2022/10/21 01:23:46;;;;;;;49.73;30.33;;;13.80;1.00;;;;;;5033881;28;20985;-68
2022/10/21 01:26:39;;;;;;;52.93;32.93;;;13.70;1.00;;;;;;5034131;28;20405;-68
2022/10/21 01:29:28;;;;;;;47.60;29.90;;;13.70;1.00;;;;;;5033395;28;20409;-67
2022/10/21 01:32:10;;;;;;;47.77;29.77;;;13.60;1.00;;;;;;5033955;28;20906;-68
2022/10/21 01:35:03;;;;;;;42.30;28.80;;;13.70;1.00;;;;;;5033944;23;20560;-65
2022/10/21 01:38:07;;;;;;;39.30;27.03;;;13.70;1.00;;;;;;5009141;28;20987;-66
2022/10/21 01:40:58;;;;;;;42.80;24.77;;;13.80;1.00;;;;;;5004317;28;20454;-65
2022/10/21 01:43:36;;;;;;;37.70;25.90;;;13.80;1.00;;;;;;5023879;28;20415;-66
2022/10/21 01:46:14;;;;;;;42.77;28.23;;;13.70;1.00;;;;;;5014864;28;20391;-66
2022/10/21 01:48:48;;;;;;;48.23;25.47;;;13.70;1.00;;;;;;5010490;28;20833;-66
2022/10/21 01:51:16;;;;;;;44.50;27.73;;;13.70;1.00;;;;;;5010919;28;20396;-66
2022/10/21 01:53:59;;;;;;;42.97;26.60;;;13.70;1.00;;;;;;4999976;28;20455;-66
2022/10/21 01:56:25;;;;;;;35.80;25.77;;;13.70;1.00;;;;;;4972592;28;20432;-66
2022/10/21 01:58:52;;;;;;;41.70;25.10;;;13.80;1.00;;;;;;4975948;28;20459;-65
2022/10/21 02:01:19;;;;;;;41.07;26.20;;;13.80;1.00;;;;;;4998922;28;20870;-66
2022/10/21 02:03:51;;;;;;;37.57;25.90;;;13.80;1.00;;;;;;4999541;28;20551;-64
2022/10/21 02:06:17;;;;;;;34.17;25.90;;;13.80;1.00;;;;;;5008264;28;21021;-65
2022/10/21 02:08:44;;;;;;;41.30;26.00;;;13.80;1.00;;;;;;4996606;28;20540;-62
2022/10/21 02:11:11;;;;;;;32.20;24.43;;;13.90;1.00;;;;;;5008843;28;20179;-64
2022/10/21 02:13:54;;;;;;;38.33;22.47;;;13.70;1.00;;;;;;5011102;28;20728;-64
2022/10/21 02:16:25;;;;;;;44.53;24.73;;;13.60;1.00;;;;;;5010390;28;20399;-65
2022/10/21 02:18:51;;;;;;;32.53;24.77;;;13.60;1.00;;;;;;4995601;28;20444;-65
2022/10/21 02:21:20;;;;;;;39.53;25.77;;;13.60;1.00;;;;;;5010002;28;20419;-62
2022/10/21 02:24:11;;;;;;;33.50;22.53;;;13.70;1.00;;;;;;5010812;28;20242;-64
2022/10/21 02:26:37;;;;;;;33.77;24.20;;;13.60;1.00;;;;;;5010484;28;20523;-65
2022/10/21 02:29:03;;;;;;;40.20;26.17;;;13.50;1.00;;;;;;5010985;28;20938;-66
2022/10/21 02:31:34;;;;;;;51.33;26.27;;;13.40;1.00;;;;;;5009533;28;20503;-66
2022/10/21 02:34:16;;;;;;;41.87;26.93;;;13.40;1.00;;;;;;5010781;28;20556;-66
2022/10/21 02:36:57;;;;;;;36.60;25.00;;;13.40;1.00;;;;;;5010272;28;20403;-64
2022/10/21 02:39:37;;;;;;;37.10;24.83;;;13.40;1.00;;;;;;5009716;28;20476;-64
2022/10/21 02:42:09;;;;;;;34.97;24.70;;;13.50;1.00;;;;;;5009297;28;20494;-64
2022/10/21 02:44:35;;;;;;;41.00;25.50;;;13.40;1.00;;;;;;5010038;28;20434;-64
2022/10/21 02:47:03;;;;;;;46.40;27.60;;;13.30;1.00;;;;;;5010037;28;20411;-64
2022/10/21 02:49:28;;;;;;;44.13;27.27;;;13.30;1.00;;;;;;5010346;28;20191;-64
2022/10/21 02:51:54;;;;;;;41.60;28.50;;;13.30;1.00;;;;;;5009538;28;21023;-64
2022/10/21 02:54:20;;;;;;;49.67;27.63;;;13.30;1.00;;;;;;5010063;28;20192;-64
2022/10/21 02:56:45;;;;;;;43.67;27.10;;;13.30;1.00;;;;;;5009951;28;20806;-63
2022/10/21 02:59:12;;;;;;;44.50;26.37;;;13.30;1.00;;;;;;5008099;28;20286;-64
2022/10/21 03:01:37;;;;;;;49.17;30.03;;;13.30;1.00;;;;;;5008756;28;20168;-64
2022/10/21 03:04:03;;;;;;;51.47;29.10;;;13.40;1.00;;;;;;5010071;28;20428;-66
2022/10/21 03:06:29;;;;;;;48.60;28.83;;;13.30;1.00;;;;;;5009527;28;20283;-64
2022/10/21 03:08:54;;;;;;;55.23;31.30;;;13.30;1.00;;;;;;5009877;28;20248;-64
2022/10/21 03:11:20;;;;;;;51.03;30.00;;;13.30;1.00;;;;;;5009431;28;20279;-64
2022/10/21 03:13:46;;;;;;;57.60;32.63;;;13.20;1.00;;;;;;5009994;28;20200;-64
2022/10/21 03:16:12;;;;;;;56.60;33.20;;;13.10;1.00;;;;;;5009830;28;20190;-65
2022/10/21 03:18:37;;;;;;;52.90;31.53;;;13.10;1.00;;;;;;5009866;28;20169;-63
2022/10/21 03:21:03;;;;;;;48.03;28.00;;;13.00;1.00;;;;;;5008899;28;20167;-64
2022/10/21 03:23:29;;;;;;;39.03;25.87;;;12.90;1.00;;;;;;5009970;28;20213;-64
2022/10/21 03:25:55;;;;;;;45.90;27.00;;;13.00;1.00;;;;;;5009344;28;20191;-64
2022/10/21 03:28:20;;;;;;;41.83;27.13;;;13.00;1.00;;;;;;5010641;28;20264;-61
2022/10/21 03:30:46;;;;;;;37.77;24.63;;;12.90;1.00;;;;;;5007584;28;20501;-64
2022/10/21 03:33:11;;;;;;;36.63;25.77;;;12.90;1.00;;;;;;5010113;28;20237;-64
2022/10/21 03:35:40;;;;;;;38.37;22.53;;;12.90;1.00;;;;;;5009335;28;20212;-64
2022/10/21 03:38:06;;;;;;;37.57;23.97;;;13.00;1.00;;;;;;5009550;28;20251;-64
2022/10/21 03:40:31;;;;;;;34.60;22.90;;;12.90;1.00;;;;;;5008946;28;21128;-64
2022/10/21 03:42:58;;;;;;;39.33;22.03;;;12.90;1.00;;;;;;5009331;28;20171;-64
2022/10/21 03:45:24;;;;;;;32.80;24.03;;;13.00;1.00;;;;;;5009185;28;20645;-64
2022/10/21 03:47:50;;;;;;;35.70;24.63;;;13.00;1.00;;;;;;5009862;28;20414;-64
2022/10/21 03:50:16;;;;;;;29.00;21.20;;;13.20;1.00;;;;;;5008919;28;20415;-63
2022/10/21 03:52:42;;;;;;;39.00;22.33;;;13.20;1.00;;;;;;5008934;28;20763;-64
2022/10/21 03:55:08;;;;;;;28.37;21.93;;;13.30;1.00;;;;;;5009128;28;20423;-64
2022/10/21 03:57:34;;;;;;;29.13;21.97;;;13.40;1.00;;;;;;5009336;28;20176;-64
2022/10/21 03:59:59;;;;;;;31.40;22.73;;;13.40;1.00;;;;;;5007320;28;20295;-65
2022/10/21 04:02:25;;;;;;;31.87;23.00;;;13.40;1.00;;;;;;5009052;28;20172;-65
2022/10/21 04:04:51;;;;;;;35.97;22.50;;;13.40;1.00;;;;;;5008771;28;20199;-66
2022/10/21 04:07:16;;;;;;;50.87;24.77;;;13.40;1.00;;;;;;5009517;28;20207;-65
2022/10/21 04:09:42;;;;;;;37.57;24.53;;;13.40;1.00;;;;;;5008857;28;20190;-65
2022/10/21 04:12:08;;;;;;;32.87;22.07;;;13.40;1.00;;;;;;5008272;28;20188;-65
2022/10/21 04:14:33;;;;;;;39.47;25.00;;;13.50;1.00;;;;;;5009088;28;20618;-65
2022/10/21 04:16:59;;;;;;;43.90;25.67;;;13.50;1.00;;;;;;5007390;28;20184;-65
2022/10/21 04:19:25;;;;;;;38.63;23.40;;;13.50;1.00;;;;;;5008923;28;20192;-65
2022/10/21 04:21:51;;;;;;;40.00;25.40;;;13.50;1.00;;;;;;5008332;28;20668;-65
2022/10/21 04:24:16;;;;;;;36.93;24.47;;;13.60;1.00;;;;;;5009224;28;20191;-64
2022/10/21 04:26:42;;;;;;;33.37;24.33;;;13.60;1.00;;;;;;5009023;28;20250;-65
2022/10/21 04:29:08;;;;;;;37.20;26.13;;;13.50;1.00;;;;;;5009461;28;20633;-65
2022/10/21 04:31:34;;;;;;;36.20;24.00;;;13.50;1.00;;;;;;5008012;28;20184;-65
2022/10/21 04:33:59;;;;;;;36.67;25.70;;;13.50;1.00;;;;;;5009324;28;20212;-65
2022/10/21 04:36:25;;;;;;;40.93;28.70;;;13.40;1.00;;;;;;5008708;28;20180;-65
2022/10/21 04:38:51;;;;;;;39.30;25.27;;;13.20;1.00;;;;;;5009312;28;20513;-65
2022/10/21 04:41:16;;;;;;;38.40;25.63;;;13.10;1.00;;;;;;5008402;28;20290;-64
2022/10/21 04:43:42;;;;;;;38.53;26.20;;;13.00;1.00;;;;;;5011636;28;20192;-65
2022/10/21 04:46:15;;;;;;;38.07;26.17;;;13.10;1.00;;;;;;5009461;28;20222;-65
2022/10/21 04:48:42;;;;;;;40.47;27.50;;;13.10;1.00;;;;;;5009230;28;20196;-65
2022/10/21 04:51:08;;;;;;;35.97;24.30;;;13.20;1.00;;;;;;5008090;28;20407;-65
2022/10/21 04:53:33;;;;;;;38.20;26.37;;;13.30;1.00;;;;;;4987190;28;20568;-65
2022/10/21 04:55:59;;;;;;;37.33;24.00;;;13.40;1.00;;;;;;4984402;28;20176;-64
2022/10/21 04:58:25;;;;;;;37.57;27.10;;;13.40;1.00;;;;;;4976634;28;20178;-66
2022/10/21 05:00:50;;;;;;;44.70;29.57;;;13.40;1.00;;;;;;4983881;28;20211;-64
2022/10/21 05:03:17;;;;;;;36.03;24.70;;;13.30;1.00;;;;;;4980548;28;20174;-65
2022/10/21 05:05:42;;;;;;;37.90;25.83;;;13.30;1.00;;;;;;4982525;28;20994;-66
2022/10/21 05:08:08;;;;;;;43.67;26.23;;;13.20;1.00;;;;;;4992619;28;20408;-67
2022/10/21 05:10:34;;;;;;;36.73;24.63;;;13.20;1.00;;;;;;4985150;28;20627;-66
2022/10/21 05:13:00;;;;;;;34.90;24.37;;;13.20;1.00;;;;;;4973352;28;20182;-64
2022/10/21 05:15:26;;;;;;;34.57;25.93;;;13.20;1.00;;;;;;4982846;28;20548;-65
2022/10/21 05:17:52;;;;;;;37.13;25.27;;;13.20;1.00;;;;;;4992764;28;20239;-65
2022/10/21 05:20:18;;;;;;;34.23;25.37;;;13.30;1.00;;;;;;4991901;28;20460;-65
2022/10/21 05:22:44;;;;;;;36.60;24.63;;;13.30;1.00;;;;;;4991638;28;21121;-65
2022/10/21 05:25:10;;;;;;;32.67;23.23;;;13.30;1.00;;;;;;4991881;28;20444;-65
2022/10/21 05:27:36;;;;;;;43.43;27.07;;;13.30;1.00;;;;;;4992476;28;20173;-64
2022/10/21 05:30:03;;;;;;;43.70;26.30;;;13.30;1.00;;;;;;4990385;28;20528;-66
2022/10/21 05:32:29;;;;;;;42.63;26.90;;;13.30;1.00;;;;;;4991207;28;20219;-65
2022/10/21 05:34:54;;;;;;;40.87;26.87;;;13.30;1.00;;;;;;4991706;28;20949;-65
2022/10/21 05:37:20;;;;;;;37.13;25.83;;;13.40;1.00;;;;;;4991964;28;20245;-65
2022/10/21 05:39:46;;;;;;;36.67;24.93;;;13.40;1.00;;;;;;4992276;28;20212;-65
2022/10/21 05:42:11;;;;;;;35.57;25.00;;;13.40;1.00;;;;;;4990825;28;20509;-65
2022/10/21 05:44:37;;;;;;;42.83;28.07;;;13.30;1.00;;;;;;4991809;28;20221;-66
2022/10/21 05:47:03;;;;;;;39.70;28.10;;;13.40;1.00;;;;;;4991615;28;20583;-65
2022/10/21 05:49:29;;;;;;;50.00;25.90;;;13.40;1.00;;;;;;4987770;28;20177;-65
2022/10/21 05:51:55;;;;;;;49.33;27.00;;;13.40;1.00;;;;;;4986651;28;20196;-65
2022/10/21 05:54:21;;;;;;;38.23;24.87;;;13.40;1.00;;;;;;4991552;28;20241;-63
2022/10/21 05:56:47;;;;;;;41.03;26.27;;;13.50;1.00;;;;;;4986376;28;20189;-66
2022/10/21 05:59:13;;;;;;;42.97;26.53;;;13.50;1.00;;;;;;4980276;28;20196;-66
2022/10/21 06:01:38;;;;;;;51.33;26.67;;;13.60;1.00;;;;;;4990422;28;20463;-66
2022/10/21 06:04:04;;;;;;;43.40;26.00;;;13.60;1.00;;;;;;4978913;28;20444;-65
2022/10/21 06:06:30;;;;;;;37.57;25.73;;;13.60;1.00;;;;;;4973593;28;20194;-65
2022/10/21 06:08:56;;;;;;;45.30;27.80;;;13.60;1.00;;;;;;4991615;28;20419;-66
2022/10/21 06:11:22;;;;;;;45.43;26.40;;;13.60;1.00;;;;;;4990441;28;20256;-66
2022/10/21 06:13:47;;;;;;;39.17;24.87;;;13.60;1.00;;;;;;4991657;28;20212;-66
2022/10/21 06:16:14;;;;;;;39.70;26.67;;;13.60;1.00;;;;;;4990951;28;20172;-66
2022/10/21 06:18:41;;;;;;;34.80;25.90;;;13.50;1.00;;;;;;4991388;28;20191;-66
2022/10/21 06:21:07;;;;;;;49.80;28.73;;;13.30;1.00;;;;;;4988007;28;20428;-65
2022/10/21 06:23:34;;;;;;;67.93;29.60;;;13.30;1.00;;;;;;4979665;28;20453;-69
2022/10/21 06:26:05;;;;;;;38.10;25.80;;;13.40;1.00;;;;;;4990333;28;20515;-66
2022/10/21 06:28:33;;;;;;;30.93;22.63;;;13.50;1.00;;;;;;4983450;28;20417;-66
2022/10/21 06:30:59;;;;;;;44.10;25.40;;;13.50;1.00;;;;;;4989469;28;20909;-66
2022/10/21 06:33:25;;;;;;;36.10;23.77;;;13.40;1.00;;;;;;4970738;28;20432;-66
2022/10/21 06:35:51;;;;;;;42.27;23.40;;;13.30;1.00;;;;;;4972095;28;20248;-66
2022/10/21 06:38:17;;;;;;;36.17;25.40;;;13.40;1.00;;;;;;4971606;28;20185;-66
2022/10/21 06:40:43;;;;;;;44.77;26.00;;;13.40;1.00;;;;;;4970957;28;20240;-66
2022/10/21 06:43:09;;;;;;;43.37;24.30;;;13.30;1.00;;;;;;4972706;28;20433;-66
2022/10/21 06:45:35;;;;;;;46.57;25.00;;;13.20;1.00;;;;;;4989783;28;20448;-66
2022/10/21 06:48:01;;;;;;;30.03;22.83;;;13.20;1.00;;;;;;4984487;28;20267;-65
2022/10/21 06:50:26;;;;;;;37.07;23.17;;;13.20;1.00;;;;;;4990154;28;20279;-65
2022/10/21 06:52:52;;;;;;;39.67;24.93;;;13.30;1.00;;;;;;4981698;28;20758;-66
2022/10/21 06:55:18;;;;;;;33.77;24.53;;;13.40;1.00;;;;;;4971039;28;20204;-66
2022/10/21 06:57:44;;;;;;;32.50;22.70;;;13.50;1.00;;;;;;4971605;28;20189;-66
2022/10/21 07:00:11;;;;;;;45.73;25.77;;;13.60;1.00;;;;;;4970499;28;20216;-66
2022/10/21 07:02:37;;;;;;;26.53;21.83;;;13.70;1.00;;;;;;4971051;28;20165;-66
2022/10/21 07:05:03;;;;;;;28.73;21.50;;;13.60;1.00;;;;;;4980837;28;20448;-66
2022/10/21 07:07:29;;;;;;;25.37;20.77;;;13.50;1.00;;;;;;4990612;28;20230;-66
2022/10/21 07:09:56;;;;;;;28.07;20.40;;;13.50;1.00;;;;;;4990404;28;20420;-66
2022/10/21 07:12:24;;;;;;;31.50;21.00;;;13.40;1.00;;;;;;4990018;28;20188;-65
2022/10/21 07:14:49;;;;;;;30.03;22.37;;;13.40;1.00;;;;;;4981988;28;20856;-66
2022/10/21 07:17:16;;;;;;;29.60;22.67;;;13.50;1.00;;;;;;4982846;28;20459;-66
2022/10/21 07:19:42;;;;;;;25.77;21.17;;;13.50;1.00;;;;;;4985610;28;20292;-65
2022/10/21 07:22:08;;;;;;;29.23;21.83;;;13.40;1.00;;;;;;4971266;28;20836;-66
2022/10/21 07:24:34;;;;;;;28.70;21.60;;;13.50;1.00;;;;;;4988047;28;20673;-65
2022/10/21 07:27:00;;;;;;;29.93;21.10;;;13.50;1.00;;;;;;4989900;28;20608;-64
2022/10/21 07:29:26;;;;;;;28.00;20.27;;;13.40;1.00;;;;;;4990081;28;20404;-65
2022/10/21 07:31:52;;;;;;;28.57;21.80;;;13.30;1.00;;;;;;4988950;28;20434;-65
2022/10/21 07:34:18;;;;;;;30.40;22.90;;;13.40;1.00;;;;;;4990539;28;20353;-66
2022/10/21 07:36:47;;;;;;;28.53;22.77;;;13.40;1.00;;;;;;4990356;28;20245;-66
2022/10/21 07:39:15;;;;;;;44.20;25.67;;;13.50;1.00;;;;;;4990258;28;20331;-65
2022/10/21 07:41:49;;;;;;;42.40;23.20;;;13.60;1.00;;;;;;4990049;28;20427;-66
2022/10/21 07:44:17;;;;;;;40.83;27.07;;;13.70;1.00;;;;;;4989906;28;20994;-65
2022/10/21 07:46:44;;;;;;;33.70;22.67;;;13.80;1.00;;;;;;4989249;28;20411;-66
2022/10/21 07:49:11;;;;;;;31.57;23.53;;;13.80;1.00;;;;;;4987068;28;20554;-66
2022/10/21 07:51:38;;;;;;;30.20;24.17;;;13.80;1.00;;;;;;4969498;28;20488;-66
2022/10/21 07:54:04;;;;;;;32.20;23.63;;;13.80;1.00;;;;;;4970183;28;20920;-66
2022/10/21 07:56:33;;;;;;;33.50;24.47;;;13.90;1.00;;;;;;4970613;28;20409;-65
2022/10/21 07:59:00;;;;;;;35.37;24.63;;;13.90;1.00;;;;;;4970253;28;20205;-66
2022/10/21 08:01:26;;;;;;;38.77;22.00;;;13.90;1.00;;;;;;4969145;28;20500;-66
2022/10/21 08:03:54;;;;;;;28.33;23.60;;;13.90;1.00;;;;;;4970850;28;20421;-65
2022/10/21 08:06:20;;;;;;;30.43;24.20;;;13.80;1.00;;;;;;4969748;28;20416;-66
2022/10/21 08:08:46;;;;;;;33.93;24.03;;;13.80;1.00;;;;;;4977912;28;20500;-65
2022/10/21 08:11:20;;;;;;;34.67;23.70;;;13.80;1.00;;;;;;4988711;28;20420;-66
2022/10/21 08:13:46;;;;;;;45.53;25.50;;;13.90;1.00;;;;;;4989763;28;20192;-65
2022/10/21 08:16:12;;;;;;;45.00;23.30;;;13.90;1.00;;;;;;4989280;28;20451;-68
2022/10/21 08:18:37;;;;;;;42.90;22.67;;;13.90;1.00;;;;;;4989577;28;20526;-67
2022/10/21 08:21:03;;;;;;;58.80;26.40;;;14.00;1.00;;;;;;4988546;28;20271;-67
2022/10/21 08:23:29;;;;;;;41.90;24.10;;;14.00;1.00;;;;;;4989969;28;20169;-67
2022/10/21 08:25:57;;;;;;;35.53;21.83;;;14.00;1.00;;;;;;4990681;28;20712;-67
2022/10/21 08:28:24;;;;;;;31.53;22.37;;;14.10;1.00;;;;;;4988143;28;20507;-67
2022/10/21 08:30:50;;;;;;;35.87;24.00;;;14.10;1.00;;;;;;4988280;28;20911;-67
2022/10/21 08:33:16;;;;;;;36.70;24.97;;;14.20;1.00;;;;;;4990273;28;20412;-67
2022/10/21 08:35:42;;;;;;;32.07;23.30;;;14.20;1.00;;;;;;4989228;28;20945;-67
2022/10/21 08:38:09;;;;;;;36.80;24.10;;;14.00;1.00;;;;;;4990917;28;20169;-67
2022/10/21 08:40:42;;;;;;;31.20;22.90;;;14.10;1.00;;;;;;4992342;28;20451;-67
2022/10/21 08:43:16;;;;;;;68.27;28.23;;;14.10;1.00;;;;;;4993058;28;20503;-67
2022/10/21 08:45:50;;;;;;;43.50;23.20;;;14.20;1.00;;;;;;4992738;28;20395;-67
2022/10/21 08:48:23;;;;;;;35.53;20.47;;;14.20;1.00;;;;;;4993309;28;20876;-67
2022/10/21 08:50:51;;;;;;;36.20;23.53;;;14.20;1.00;;;;;;4992234;28;20485;-67
2022/10/21 08:53:27;;;;;;;31.93;21.20;;;14.10;1.00;;;;;;4993025;28;20420;-67
2022/10/21 08:56:01;;;;;;;32.50;23.53;;;14.00;1.00;;;;;;4992568;28;20416;-67
2022/10/21 08:58:27;;;;;;;61.50;28.70;;;14.00;1.00;;;;;;4993428;28;20916;-67
2022/10/21 09:01:00;;;;;;;40.13;22.40;;;14.10;1.00;;;;;;4991575;28;20459;-67
2022/10/21 09:03:53;;;;;;;32.73;23.90;;;14.20;1.00;;;;;;4993075;28;20359;-66
2022/10/21 09:06:28;;;;;;;77.23;26.37;;;14.20;1.00;;;;;;4992388;28;20412;-66
2022/10/21 09:09:12;;;;;;;44.80;24.70;;;14.30;1.00;;;;;;4983778;28;20885;-67
2022/10/21 09:11:59;;;;;;;31.87;22.87;;;14.30;1.00;;;;;;4972269;28;20404;-67
2022/10/21 09:14:45;;;;;;;33.00;23.30;;;14.50;1.00;;;;;;4973365;28;20427;-66
2022/10/21 09:18:09;;;;;;;31.47;23.90;;;14.40;1.00;;;;;;4972351;28;20757;-67
2022/10/21 09:20:44;;;;;;;33.73;23.80;;;14.30;1.00;;;;;;4939966;28;20472;-66
2022/10/21 09:23:39;;;;;;;31.13;23.87;;;14.30;1.00;;;;;;4973071;28;20762;-67
2022/10/21 09:26:25;;;;;;;30.20;23.10;;;14.40;1.00;;;;;;4962067;28;20431;-67
2022/10/21 09:28:51;;;;;;;30.97;22.67;;;14.40;1.00;;;;;;4973110;28;20968;-67
2022/10/21 09:31:19;;;;;;;35.20;24.67;;;14.40;1.00;;;;;;4971566;28;20420;-67
2022/10/21 09:34:01;;;;;;;33.33;22.20;;;14.50;1.00;;;;;;4972935;28;20213;-67
2022/10/21 09:36:36;;;;;;;34.07;24.10;;;14.60;1.00;;;;;;4972718;28;20413;-67
2022/10/21 09:39:34;;;;;;;36.43;25.13;;;14.60;1.00;;;;;;4972736;28;20420;-67
2022/10/21 09:41:59;;;;;;;41.70;32.40;;;14.70;1.00;;;;;;4971360;28;20428;-67
2022/10/21 09:44:25;;;;;;;54.97;35.97;;;14.70;1.00;;;;;;4972790;28;20433;-67
2022/10/21 09:46:52;;;;;;;46.70;30.17;;;14.70;1.00;;;;;;4972032;28;20201;-67
2022/10/21 09:49:29;;;;;;;46.10;26.30;;;14.80;1.00;;;;;;4972150;28;20598;-67
2022/10/21 09:51:58;;;;;;;34.77;22.90;;;14.80;1.00;;;;;;4971773;28;20524;-67
2022/10/21 09:54:28;;;;;;;49.90;28.77;;;14.80;1.00;;;;;;4975609;28;20447;-67
2022/10/21 09:57:00;;;;;;;37.53;24.73;;;14.80;1.00;;;;;;4991698;28;20424;-67
2022/10/21 09:59:25;;;;;;;38.13;24.23;;;14.80;1.00;;;;;;4991907;28;20482;-67
2022/10/21 10:01:52;;;;;;;36.30;22.27;;;14.80;1.00;;;;;;4990075;28;20420;-67
2022/10/21 10:04:32;;;;;;;38.00;23.10;;;14.90;1.00;;;;;;4985690;28;20211;-67
2022/10/21 10:07:24;;;;;;;31.47;20.87;;;14.90;1.00;;;;;;4988825;28;20416;-67
2022/10/21 10:09:50;;;;;;;28.93;21.90;;;14.90;1.00;;;;;;4989476;28;20416;-66
2022/10/21 10:12:24;;;;;;;30.00;20.70;;;14.90;1.00;;;;;;4990493;28;20716;-67
2022/10/21 10:14:50;;;;;;;24.13;18.47;;;14.90;1.00;;;;;;4983732;28;20236;-67
2022/10/21 10:17:18;;;;;;;28.87;19.00;;;14.90;1.00;;;;;;4979993;28;20443;-67
2022/10/21 10:20:04;;;;;;;24.40;18.40;;;14.90;1.00;;;;;;4991218;28;20478;-67
2022/10/21 10:22:37;;;;;;;21.27;16.47;;;15.00;1.00;;;;;;4990179;28;20412;-67
2022/10/21 10:25:25;;;;;;;35.10;17.03;;;15.00;1.00;;;;;;4987651;28;20435;-67
2022/10/21 10:27:58;;;;;;;29.83;16.33;;;15.10;1.00;;;;;;4971640;28;20405;-67
2022/10/21 10:30:28;;;;;;;36.23;15.67;;;15.20;1.00;;;;;;4970525;28;20463;-68
2022/10/21 10:32:55;;;;;;;43.50;16.20;;;15.10;1.00;;;;;;4973897;28;20397;-66
2022/10/21 10:35:29;;;;;;;24.70;14.30;;;15.30;1.00;;;;;;4986749;28;20565;-66
2022/10/21 10:38:01;;;;;;;75.80;19.70;;;15.30;1.00;;;;;;4971625;28;20405;-66
2022/10/21 10:40:38;;;;;;;74.80;18.70;;;15.40;1.00;;;;;;4972191;28;20546;-65
2022/10/21 10:43:15;;;;;;;46.13;15.20;;;15.40;1.00;;;;;;4983138;28;20413;-65
2022/10/21 10:45:53;;;;;;;25.73;13.57;;;15.70;1.00;;;;;;4991162;28;20439;-66
2022/10/21 10:48:26;;;;;;;29.53;15.60;;;16.10;1.00;;;;;;4991443;28;20411;-66
2022/10/21 10:50:52;;;;;;;33.63;13.97;;;15.90;1.00;;;;;;4989701;28;20479;-66
2022/10/21 10:53:32;;;;;;;24.87;15.50;;;15.90;1.00;;;;;;4982892;28;20424;-66
2022/10/21 10:56:03;;;;;;;51.17;16.63;;;15.80;1.00;;;;;;4991189;28;20250;-65
2022/10/21 10:58:33;;;;;;;37.03;16.30;;;15.80;1.00;;;;;;4991232;28;20786;-65
2022/10/21 11:01:04;;;;;;;31.63;17.57;;;15.80;1.00;;;;;;4981127;28;20503;-64
2022/10/21 11:03:38;;;;;;;42.73;17.50;;;15.80;1.00;;;;;;4985289;28;20451;-64
2022/10/21 11:06:14;;;;;;;40.80;16.47;;;15.70;1.00;;;;;;4988197;28;20515;-65
2022/10/21 11:08:48;;;;;;;38.90;16.60;;;15.80;1.00;;;;;;4983669;28;20409;-64
2022/10/21 11:11:24;;;;;;;34.97;15.30;;;15.80;1.00;;;;;;4973441;28;20432;-65
2022/10/21 11:13:51;;;;;;;55.03;18.13;;;15.80;1.00;;;;;;4980165;28;20513;-65
2022/10/21 11:16:44;;;;;;;37.93;15.07;;;15.80;1.00;;;;;;4989197;28;20529;-65
2022/10/21 11:19:24;;;;;;;39.43;13.80;;;15.90;1.00;;;;;;4989996;28;20842;-65
2022/10/21 11:22:19;;;;;;;24.13;11.70;;;15.80;1.00;;;;;;4989074;28;20412;-64
2022/10/21 11:25:06;;;;;;;73.13;14.07;;;15.80;1.00;;;;;;4989395;28;20428;-65
2022/10/21 11:27:54;;;;;;;39.23;12.13;;;15.80;1.00;;;;;;4990157;28;20953;-65
2022/10/21 11:30:40;;;;;;;15.00;10.67;;;15.80;1.00;;;;;;4973639;28;20503;-65
2022/10/21 11:33:32;;;;;;;43.00;12.70;;;15.80;1.00;;;;;;4970028;28;20424;-65
2022/10/21 11:36:03;;;;;;;62.03;14.10;;;15.80;1.00;;;;;;4970319;28;20424;-65
2022/10/21 11:39:06;;;;;;;41.60;12.17;;;15.80;1.00;;;;;;4970963;28;20475;-65
2022/10/21 11:41:33;;;;;;;23.87;9.53;;;15.90;1.00;;;;;;4969998;28;20425;-65
2022/10/21 11:44:28;;;;;;;10.70;7.30;;;16.00;1.00;;;;;;4970321;28;20965;-65
2022/10/21 11:47:18;;;;;;;13.90;8.83;;;16.00;1.00;;;;;;4969845;28;20504;-64
2022/10/21 11:50:19;;;;;;;36.40;9.77;;;16.00;1.00;;;;;;4970239;28;20718;-65
2022/10/21 11:53:13;;;;;;;15.17;6.20;;;16.00;1.00;;;;;;4927736;29;20438;-64
2022/10/21 11:56:03;;;;;;;10.93;6.47;;;16.00;1.00;;;;;;4986689;28;20771;-64
2022/10/21 11:58:49;;;;;;;50.87;12.73;;;16.00;1.00;;;;;;4982975;28;20917;-65
2022/10/21 12:01:22;;;;;;;23.10;6.80;;;16.00;1.00;;;;;;4987547;28;20765;-65
2022/10/21 12:04:33;;;;;;;21.60;6.10;;;16.00;1.00;;;;;;4982160;28;20421;-65
2022/10/21 12:07:23;;;;;;;11.60;4.60;;;16.00;1.00;;;;;;4954364;28;20424;-65
2022/10/21 12:09:52;;;;;;;5.50;3.57;;;16.00;1.00;;;;;;4986206;28;20440;-65
2022/10/21 12:12:25;;;;;;;10.87;4.30;;;16.00;1.00;;;;;;4981619;28;20425;-64
2022/10/21 12:15:01;;;;;;;6.90;4.07;;;16.10;1.00;;;;;;4987264;28;20479;-64
2022/10/21 12:17:30;;;;;;;5.80;3.93;;;16.00;1.00;;;;;;4982157;28;20492;-67
2022/10/21 12:20:06;;;;;;;6.90;3.67;;;16.10;1.00;;;;;;4989737;28;20459;-65
2022/10/21 12:22:33;;;;;;;4.07;2.80;;;16.20;1.00;;;;;;4984757;28;20518;-65
2022/10/21 12:25:11;;;;;;;11.03;3.93;;;16.30;1.00;;;;;;4984852;28;20467;-65
2022/10/21 12:28:04;;;;;;;13.43;3.90;;;16.30;1.00;;;;;;4983732;28;20937;-66
2022/10/21 12:31:14;;;;;;;15.03;3.87;;;16.30;1.00;;;;;;4987311;28;20531;-64
2022/10/21 12:33:42;;;;;;;11.93;3.53;;;16.30;1.00;;;;;;4980086;28;20455;-67
2022/10/21 12:36:19;;;;;;;9.13;3.80;;;16.30;1.00;;;;;;4982791;28;20437;-65
2022/10/21 12:38:47;;;;;;;10.50;4.47;;;16.40;1.00;;;;;;4990486;28;20407;-66
2022/10/21 12:41:23;;;;;;;28.60;5.37;;;16.50;1.00;;;;;;4985512;28;20466;-65
2022/10/21 12:44:01;;;;;;;53.57;8.90;;;16.50;1.00;;;;;;4979586;28;20432;-67
2022/10/21 12:46:32;;;;;;;24.40;5.17;;;16.50;1.00;;;;;;4982079;28;20788;-67
2022/10/21 12:49:03;;;;;;;18.97;3.47;;;16.40;1.00;;;;;;4986174;28;20439;-66
2022/10/21 12:51:31;;;;;;;28.73;4.70;;;16.30;1.00;;;;;;4986230;28;20474;-66
2022/10/21 12:54:12;;;;;;;8.90;3.47;;;16.30;1.00;;;;;;4980211;28;20456;-66
2022/10/21 12:57:01;;;;;;;19.50;3.37;;;16.30;1.00;;;;;;4985484;28;20436;-67
2022/10/21 12:59:42;;;;;;;14.60;3.77;;;16.30;1.00;;;;;;4983801;28;20874;-66